Pagrindinis puslapis
METAR-TAF:

METAR-TAF

Oro uostai :

Kaselis, Vokietija

platuma: 51-24N, ilguma: 009-23E, Aukštis: 277 m

Dabartinis oras

Ataskaita buvo paskelbta 31 minutes, ne 09:50 UTC
Vėjas 2 kt nuo kintamojo kryptimis
Temperatūra 12°C
Drėgmė 62%
Slėgis 1030 hPa
Matomumas 10 km arba daugiau
nėra debesų žemiau 1500 m ir nėra kamuolinių lietaus debesų

METAR: EDVK 200950Z VRB02KT CAVOK 12/05 Q1030

Laikas: 12:21 (10:21 UTC)

Prognozė

Ataskaita buvo paskelbta 2 valandos ir 21 minutes, ne 08:00 UTC
Prognozė galioja nuo 20 metu 09 UTC su 20 metu 18 UTC
Vėjas 4 kt iš Šiaurės/Šiaurės Rytų
Matomumas 10 km arba daugiau
nėra debesų žemiau 1500 m ir nėra kamuolinių lietaus debesų

TAF: EDVK 200800Z 2009/2018 03004KT CAVOK

Orai ataskaitas ir orų prognozės (METAR, TAF).

turimą stotys yra geltonos ir raudonos taškus žemėlapyje.

Perkelti pele per norėdami pamatyti stoties vardą.

Tada spustelėkite, norėdami matyti oro stebėjimo ir prognozės.

Norėdami pakeisti žemėlapį: spustelėkite ant žalios mygtukų su juodo kryžiaus žemyn,; žalią mygtuką su brūkšneliu, jei norite nutolinti; arba žalių rodyklių gretimoms žemėlapius.


METAR-TAF: